sensor_id;sensor_type;location;lat;lon;timestamp;pressure;altitude;pressure_sealevel;temperature;humidity
18900;BME280;9582;52.018;6.306;2023-01-26T00:00:43;102447.25;;;0.07;100.00
18900;BME280;9582;52.018;6.306;2023-01-26T00:03:15;102449.81;;;0.05;100.00
18900;BME280;9582;52.018;6.306;2023-01-26T00:05:51;102445.56;;;0.07;100.00
18900;BME280;9582;52.018;6.306;2023-01-26T00:08:23;102437.84;;;0.07;100.00
18900;BME280;9582;52.018;6.306;2023-01-26T00:10:51;102431.91;;;0.10;100.00
18900;BME280;9582;52.018;6.306;2023-01-26T00:13:20;102427.56;;;0.07;100.00
18900;BME280;9582;52.018;6.306;2023-01-26T00:15:50;102430.84;;;0.02;100.00
18900;BME280;9582;52.018;6.306;2023-01-26T00:18:16;102431.81;;;0.07;100.00
18900;BME280;9582;52.018;6.306;2023-01-26T00:20:55;102423.28;;;0.08;100.00
18900;BME280;9582;52.018;6.306;2023-01-26T00:23:32;102424.19;;;0.10;100.00
18900;BME280;9582;52.018;6.306;2023-01-26T00:26:11;102418.16;;;0.09;100.00
18900;BME280;9582;52.018;6.306;2023-01-26T00:28:46;102421.63;;;0.10;100.00
18900;BME280;9582;52.018;6.306;2023-01-26T00:31:21;102409.56;;;0.07;100.00
18900;BME280;9582;52.018;6.306;2023-01-26T00:33:52;102417.28;;;0.07;100.00
18900;BME280;9582;52.018;6.306;2023-01-26T00:36:22;102407.72;;;0.02;100.00
18900;BME280;9582;52.018;6.306;2023-01-26T00:38:51;102406.03;;;0.04;100.00
18900;BME280;9582;52.018;6.306;2023-01-26T00:41:20;102399.97;;;0.00;100.00
18900;BME280;9582;52.018;6.306;2023-01-26T00:44:05;102394.88;;;0.03;100.00
18900;BME280;9582;52.018;6.306;2023-01-26T00:46:31;102382.00;;;0.02;100.00
18900;BME280;9582;52.018;6.306;2023-01-26T00:49:01;102377.72;;;0.02;100.00
18900;BME280;9582;52.018;6.306;2023-01-26T00:51:31;102379.41;;;0.00;100.00
18900;BME280;9582;52.018;6.306;2023-01-26T00:54:02;102381.19;;;0.04;100.00
18900;BME280;9582;52.018;6.306;2023-01-26T00:56:29;102380.31;;;0.04;100.00
18900;BME280;9582;52.018;6.306;2023-01-26T00:59:07;102384.72;;;0.08;100.00
18900;BME280;9582;52.018;6.306;2023-01-26T01:01:39;102387.22;;;0.05;100.00
18900;BME280;9582;52.018;6.306;2023-01-26T01:04:10;102385.47;;;0.04;100.00
18900;BME280;9582;52.018;6.306;2023-01-26T01:06:40;102382.13;;;0.08;100.00
18900;BME280;9582;52.018;6.306;2023-01-26T01:09:14;102376.13;;;0.09;100.00
18900;BME280;9582;52.018;6.306;2023-01-26T01:11:41;102375.31;;;0.08;100.00
18900;BME280;9582;52.018;6.306;2023-01-26T01:14:16;102382.34;;;0.17;100.00
18900;BME280;9582;52.018;6.306;2023-01-26T01:16:45;102375.53;;;0.19;100.00
18900;BME280;9582;52.018;6.306;2023-01-26T01:19:17;102370.47;;;0.22;100.00
18900;BME280;9582;52.018;6.306;2023-01-26T01:21:48;102370.41;;;0.20;100.00
18900;BME280;9582;52.018;6.306;2023-01-26T01:24:17;102363.41;;;0.15;100.00
18900;BME280;9582;52.018;6.306;2023-01-26T01:26:45;102371.06;;;0.12;100.00
18900;BME280;9582;52.018;6.306;2023-01-26T01:29:12;102377.06;;;0.11;100.00
18900;BME280;9582;52.018;6.306;2023-01-26T01:31:42;102372.75;;;0.10;100.00
18900;BME280;9582;52.018;6.306;2023-01-26T01:34:12;102379.56;;;0.08;100.00
18900;BME280;9582;52.018;6.306;2023-01-26T01:36:38;102374.44;;;0.09;100.00
18900;BME280;9582;52.018;6.306;2023-01-26T01:39:10;102364.22;;;0.12;100.00
18900;BME280;9582;52.018;6.306;2023-01-26T01:41:44;102374.50;;;0.11;100.00
18900;BME280;9582;52.018;6.306;2023-01-26T01:44:12;102370.19;;;0.10;100.00
18900;BME280;9582;52.018;6.306;2023-01-26T01:46:49;102370.22;;;0.11;100.00
18900;BME280;9582;52.018;6.306;2023-01-26T01:49:21;102369.44;;;0.14;100.00
18900;BME280;9582;52.018;6.306;2023-01-26T01:52:03;102366.91;;;0.17;100.00
18900;BME280;9582;52.018;6.306;2023-01-26T01:54:38;102363.41;;;0.15;100.00
18900;BME280;9582;52.018;6.306;2023-01-26T01:57:15;102363.47;;;0.16;100.00
18900;BME280;9582;52.018;6.306;2023-01-26T01:59:56;102360.91;;;0.18;100.00
18900;BME280;9582;52.018;6.306;2023-01-26T02:02:26;102360.09;;;0.19;100.00
18900;BME280;9582;52.018;6.306;2023-01-26T02:05:19;102354.97;;;0.19;100.00
18900;BME280;9582;52.018;6.306;2023-01-26T02:07:51;102355.09;;;0.25;100.00
18900;BME280;9582;52.018;6.306;2023-01-26T02:10:27;102355.09;;;0.25;100.00
18900;BME280;9582;52.018;6.306;2023-01-26T02:12:54;102350.81;;;0.25;100.00
18900;BME280;9582;52.018;6.306;2023-01-26T02:15:23;102348.25;;;0.25;100.00
18900;BME280;9582;52.018;6.306;2023-01-26T02:17:53;102347.41;;;0.26;100.00
18900;BME280;9582;52.018;6.306;2023-01-26T02:20:24;102345.72;;;0.28;100.00
18900;BME280;9582;52.018;6.306;2023-01-26T02:23:00;102345.72;;;0.28;100.00
18900;BME280;9582;52.018;6.306;2023-01-26T02:25:39;102344.00;;;0.29;100.00
18900;BME280;9582;52.018;6.306;2023-01-26T02:28:18;102337.16;;;0.29;100.00
18900;BME280;9582;52.018;6.306;2023-01-26T02:30:51;102337.16;;;0.29;100.00
18900;BME280;9582;52.018;6.306;2023-01-26T02:33:23;102338.03;;;0.30;100.00
18900;BME280;9582;52.018;6.306;2023-01-26T02:35:58;102333.84;;;0.33;100.00
18900;BME280;9582;52.018;6.306;2023-01-26T02:38:38;102332.16;;;0.35;100.00
18900;BME280;9582;52.018;6.306;2023-01-26T02:41:08;102340.63;;;0.30;100.00
18900;BME280;9582;52.018;6.306;2023-01-26T02:43:39;102333.66;;;0.26;100.00
18900;BME280;9582;52.018;6.306;2023-01-26T02:46:13;102332.91;;;0.30;100.00
18900;BME280;9582;52.018;6.306;2023-01-26T02:48:42;102326.13;;;0.33;100.00
18900;BME280;9582;52.018;6.306;2023-01-26T02:51:34;102319.28;;;0.34;100.00
18900;BME280;9582;52.018;6.306;2023-01-26T02:54:03;102329.59;;;0.35;100.00
18900;BME280;9582;52.018;6.306;2023-01-26T02:56:35;102342.31;;;0.29;100.00
18900;BME280;9582;52.018;6.306;2023-01-26T02:59:05;102333.84;;;0.33;100.00
18900;BME280;9582;52.018;6.306;2023-01-26T03:01:33;102339.00;;;0.33;100.00
18900;BME280;9582;52.018;6.306;2023-01-26T03:04:09;102345.75;;;0.30;100.00
18900;BME280;9582;52.018;6.306;2023-01-26T03:06:40;102340.63;;;0.31;100.00
18900;BME280;9582;52.018;6.306;2023-01-26T03:09:12;102337.25;;;0.32;100.00
18900;BME280;9582;52.018;6.306;2023-01-26T03:11:39;102340.69;;;0.34;100.00
18900;BME280;9582;52.018;6.306;2023-01-26T03:14:08;102332.22;;;0.38;100.00
18900;BME280;9582;52.018;6.306;2023-01-26T03:16:41;102327.94;;;0.39;100.00
18900;BME280;9582;52.018;6.306;2023-01-26T03:19:17;102326.34;;;0.44;100.00
18900;BME280;9582;52.018;6.306;2023-01-26T03:22:07;102332.38;;;0.46;100.00
18900;BME280;9582;52.018;6.306;2023-01-26T03:24:54;102328.03;;;0.43;100.00
18900;BME280;9582;52.018;6.306;2023-01-26T03:27:57;102331.41;;;0.41;100.00
18900;BME280;9582;52.018;6.306;2023-01-26T03:30:36;102332.19;;;0.37;100.00
18900;BME280;9582;52.018;6.306;2023-01-26T03:33:03;102326.19;;;0.36;100.00
18900;BME280;9582;52.018;6.306;2023-01-26T03:35:31;102323.50;;;0.32;100.00
18900;BME280;9582;52.018;6.306;2023-01-26T03:38:07;102328.56;;;0.29;100.00
18900;BME280;9582;52.018;6.306;2023-01-26T03:40:57;102324.38;;;0.32;100.00
18900;BME280;9582;52.018;6.306;2023-01-26T03:43:47;102328.72;;;0.35;100.00
18900;BME280;9582;52.018;6.306;2023-01-26T03:46:36;102320.09;;;0.33;100.00
18900;BME280;9582;52.018;6.306;2023-01-26T03:49:23;102323.47;;;0.30;100.00
18900;BME280;9582;52.018;6.306;2023-01-26T03:52:15;102330.31;;;0.30;100.00
18900;BME280;9582;52.018;6.306;2023-01-26T03:55:05;102329.56;;;0.34;100.00
18900;BME280;9582;52.018;6.306;2023-01-26T03:57:51;102331.34;;;0.38;100.00
18900;BME280;9582;52.018;6.306;2023-01-26T04:00:18;102338.25;;;0.40;100.00
18900;BME280;9582;52.018;6.306;2023-01-26T04:02:50;102338.38;;;0.45;100.00
18900;BME280;9582;52.018;6.306;2023-01-26T04:05:34;102336.63;;;0.44;100.00
18900;BME280;9582;52.018;6.306;2023-01-26T04:08:18;102340.88;;;0.42;100.00
18900;BME280;9582;52.018;6.306;2023-01-26T04:10:53;102339.22;;;0.45;100.00
18900;BME280;9582;52.018;6.306;2023-01-26T04:13:22;102326.47;;;0.50;100.00
18900;BME280;9582;52.018;6.306;2023-01-26T04:16:18;102322.16;;;0.49;100.00
18900;BME280;9582;52.018;6.306;2023-01-26T04:19:16;102324.84;;;0.53;100.00
18900;BME280;9582;52.018;6.306;2023-01-26T04:22:06;102329.16;;;0.56;100.00
18900;BME280;9582;52.018;6.306;2023-01-26T04:24:35;102332.56;;;0.55;100.00
18900;BME280;9582;52.018;6.306;2023-01-26T04:27:02;102328.19;;;0.51;100.00
18900;BME280;9582;52.018;6.306;2023-01-26T04:29:34;102333.31;;;0.48;100.00
18900;BME280;9582;52.018;6.306;2023-01-26T04:32:09;102328.09;;;0.46;100.00
18900;BME280;9582;52.018;6.306;2023-01-26T04:34:38;102326.41;;;0.47;100.00
18900;BME280;9582;52.018;6.306;2023-01-26T04:37:12;102330.69;;;0.46;100.00
18900;BME280;9582;52.018;6.306;2023-01-26T04:39:45;102325.59;;;0.51;100.00
18900;BME280;9582;52.018;6.306;2023-01-26T04:42:16;102326.47;;;0.51;100.00
18900;BME280;9582;52.018;6.306;2023-01-26T04:44:44;102330.88;;;0.57;100.00
18900;BME280;9582;52.018;6.306;2023-01-26T04:47:13;102322.34;;;0.58;100.00
18900;BME280;9582;52.018;6.306;2023-01-26T04:49:44;102319.88;;;0.64;100.00
18900;BME280;9582;52.018;6.306;2023-01-26T04:52:15;102311.38;;;0.68;100.00
18900;BME280;9582;52.018;6.306;2023-01-26T04:54:44;102313.19;;;0.72;100.00
18900;BME280;9582;52.018;6.306;2023-01-26T04:57:13;102310.53;;;0.68;100.00
18900;BME280;9582;52.018;6.306;2023-01-26T04:59:49;102313.13;;;0.71;100.00
18900;BME280;9582;52.018;6.306;2023-01-26T05:02:19;102308.78;;;0.67;100.00
18900;BME280;9582;52.018;6.306;2023-01-26T05:04:50;102307.03;;;0.66;100.00
18900;BME280;9582;52.018;6.306;2023-01-26T05:07:19;102306.28;;;0.71;100.00
18900;BME280;9582;52.018;6.306;2023-01-26T05:09:48;102300.22;;;0.68;100.00
18900;BME280;9582;52.018;6.306;2023-01-26T05:12:30;102301.19;;;0.73;100.00
18900;BME280;9582;52.018;6.306;2023-01-26T05:15:18;102299.53;;;0.76;100.00
18900;BME280;9582;52.018;6.306;2023-01-26T05:18:12;102296.97;;;0.78;100.00
18900;BME280;9582;52.018;6.306;2023-01-26T05:20:48;102299.47;;;0.73;100.00
18900;BME280;9582;52.018;6.306;2023-01-26T05:23:17;102290.81;;;0.70;100.00
18900;BME280;9582;52.018;6.306;2023-01-26T05:26:08;102294.34;;;0.75;100.00
18900;BME280;9582;52.018;6.306;2023-01-26T05:28:55;102292.59;;;0.72;100.00
18900;BME280;9582;52.018;6.306;2023-01-26T05:31:24;102293.47;;;0.74;100.00
18900;BME280;9582;52.018;6.306;2023-01-26T05:33:54;102297.72;;;0.72;100.00
18900;BME280;9582;52.018;6.306;2023-01-26T05:36:24;102303.72;;;0.71;100.00
18900;BME280;9582;52.018;6.306;2023-01-26T05:38:55;102307.22;;;0.75;100.00
18900;BME280;9582;52.018;6.306;2023-01-26T05:41:33;102298.63;;;0.74;100.00
18900;BME280;9582;52.018;6.306;2023-01-26T05:44:27;102304.69;;;0.78;100.00
18900;BME280;9582;52.018;6.306;2023-01-26T05:47:05;102305.56;;;0.78;100.00
18900;BME280;9582;52.018;6.306;2023-01-26T05:49:42;102304.69;;;0.76;100.00
18900;BME280;9582;52.018;6.306;2023-01-26T05:52:19;102303.06;;;0.81;100.00
18900;BME280;9582;52.018;6.306;2023-01-26T05:54:53;102308.34;;;0.87;100.00
18900;BME280;9582;52.018;6.306;2023-01-26T05:57:24;102301.50;;;0.89;100.00
18900;BME280;9582;52.018;6.306;2023-01-26T06:00:08;102304.91;;;0.88;100.00
18900;BME280;9582;52.018;6.306;2023-01-26T06:02:50;102310.84;;;0.86;100.00
18900;BME280;9582;52.018;6.306;2023-01-26T06:05:23;102303.19;;;0.87;100.00
18900;BME280;9582;52.018;6.306;2023-01-26T06:07:53;102301.44;;;0.88;100.00
18900;BME280;9582;52.018;6.306;2023-01-26T06:10:27;102313.53;;;0.90;100.00
18900;BME280;9582;52.018;6.306;2023-01-26T06:13:28;102307.50;;;0.90;100.00
18900;BME280;9582;52.018;6.306;2023-01-26T06:16:14;102311.00;;;0.93;100.00
18900;BME280;9582;52.018;6.306;2023-01-26T06:18:47;102308.34;;;0.87;100.00
18900;BME280;9582;52.018;6.306;2023-01-26T06:21:21;102311.66;;;0.82;100.00
18900;BME280;9582;52.018;6.306;2023-01-26T06:23:57;102318.44;;;0.78;100.00
18900;BME280;9582;52.018;6.306;2023-01-26T06:26:25;102318.50;;;0.81;100.00
18900;BME280;9582;52.018;6.306;2023-01-26T06:28:53;102304.63;;;0.75;100.00
18900;BME280;9582;52.018;6.306;2023-01-26T06:31:20;102314.06;;;0.74;100.00
18900;BME280;9582;52.018;6.306;2023-01-26T06:33:53;102314.97;;;0.76;100.00
18900;BME280;9582;52.018;6.306;2023-01-26T06:36:23;102317.59;;;0.79;100.00
18900;BME280;9582;52.018;6.306;2023-01-26T06:38:51;102321.97;;;0.85;100.00
18900;BME280;9582;52.018;6.306;2023-01-26T06:41:24;102316.06;;;0.89;100.00
18900;BME280;9582;52.018;6.306;2023-01-26T06:43:53;102317.81;;;0.90;100.00
18900;BME280;9582;52.018;6.306;2023-01-26T06:46:20;102321.09;;;0.83;100.00
18900;BME280;9582;52.018;6.306;2023-01-26T06:48:52;102327.94;;;0.81;100.00
18900;BME280;9582;52.018;6.306;2023-01-26T06:51:40;102324.41;;;0.76;100.00
18900;BME280;9582;52.018;6.306;2023-01-26T06:54:09;102320.22;;;0.82;100.00
18900;BME280;9582;52.018;6.306;2023-01-26T06:57:03;102326.19;;;0.80;100.00
18900;BME280;9582;52.018;6.306;2023-01-26T07:00:02;102333.78;;;0.74;100.00
18900;BME280;9582;52.018;6.306;2023-01-26T07:02:39;102332.09;;;0.74;100.00
18900;BME280;9582;52.018;6.306;2023-01-26T07:05:13;102330.44;;;0.76;100.00
18900;BME280;9582;52.018;6.306;2023-01-26T07:07:43;102337.28;;;0.76;100.00
18900;BME280;9582;52.018;6.306;2023-01-26T07:10:10;102329.50;;;0.74;100.00
18900;BME280;9582;52.018;6.306;2023-01-26T07:12:44;102332.25;;;0.82;100.00
18900;BME280;9582;52.018;6.306;2023-01-26T07:15:16;102333.16;;;0.84;100.00
18900;BME280;9582;52.018;6.306;2023-01-26T07:17:47;102336.59;;;0.86;100.00
18900;BME280;9582;52.018;6.306;2023-01-26T07:20:18;102337.47;;;0.86;100.00
18900;BME280;9582;52.018;6.306;2023-01-26T07:22:48;102340.88;;;0.85;100.00
18900;BME280;9582;52.018;6.306;2023-01-26T07:25:19;102335.72;;;0.84;100.00
18900;BME280;9582;52.018;6.306;2023-01-26T07:27:47;102334.84;;;0.83;100.00
18900;BME280;9582;52.018;6.306;2023-01-26T07:30:17;102337.34;;;0.80;100.00
18900;BME280;9582;52.018;6.306;2023-01-26T07:32:52;102329.72;;;0.85;100.00
18900;BME280;9582;52.018;6.306;2023-01-26T07:35:20;102343.44;;;0.84;100.00
18900;BME280;9582;52.018;6.306;2023-01-26T07:37:49;102338.31;;;0.85;100.00
18900;BME280;9582;52.018;6.306;2023-01-26T07:40:16;102338.34;;;0.87;100.00
18900;BME280;9582;52.018;6.306;2023-01-26T07:42:50;102340.00;;;0.83;100.00
18900;BME280;9582;52.018;6.306;2023-01-26T07:45:46;102348.59;;;0.84;100.00
18900;BME280;9582;52.018;6.306;2023-01-26T07:48:21;102352.19;;;0.92;100.00
18900;BME280;9582;52.018;6.306;2023-01-26T07:50:56;102349.53;;;0.89;100.00
18900;BME280;9582;52.018;6.306;2023-01-26T07:53:22;102353.00;;;0.89;100.00
18900;BME280;9582;52.018;6.306;2023-01-26T07:56:06;102353.00;;;0.91;100.00
18900;BME280;9582;52.018;6.306;2023-01-26T07:58:34;102353.94;;;0.94;100.00
18900;BME280;9582;52.018;6.306;2023-01-26T08:01:09;102360.84;;;0.95;100.00
18900;BME280;9582;52.018;6.306;2023-01-26T08:03:40;102360.84;;;0.97;100.00
18900;BME280;9582;52.018;6.306;2023-01-26T08:06:12;102359.91;;;0.93;100.00
18900;BME280;9582;52.018;6.306;2023-01-26T08:08:45;102354.78;;;0.93;100.00
18900;BME280;9582;52.018;6.306;2023-01-26T08:11:16;102362.53;;;0.95;100.00
18900;BME280;9582;52.018;6.306;2023-01-26T08:13:47;102360.84;;;0.97;100.00
18900;BME280;9582;52.018;6.306;2023-01-26T08:16:13;102353.19;;;0.98;100.00
18900;BME280;9582;52.018;6.306;2023-01-26T08:18:41;102357.63;;;1.07;100.00
18900;BME280;9582;52.018;6.306;2023-01-26T08:21:11;102362.78;;;1.07;100.00
18900;BME280;9582;52.018;6.306;2023-01-26T08:23:49;102358.63;;;1.15;100.00
18900;BME280;9582;52.018;6.306;2023-01-26T08:26:22;102358.59;;;1.13;100.00
18900;BME280;9582;52.018;6.306;2023-01-26T08:28:49;102352.59;;;1.14;100.00
18900;BME280;9582;52.018;6.306;2023-01-26T08:31:19;102357.81;;;1.17;100.00
18900;BME280;9582;52.018;6.306;2023-01-26T08:33:48;102358.75;;;1.23;100.00
18900;BME280;9582;52.018;6.306;2023-01-26T08:36:19;102361.41;;;1.26;100.00
18900;BME280;9582;52.018;6.306;2023-01-26T08:38:50;102360.56;;;1.27;100.00
18900;BME280;9582;52.018;6.306;2023-01-26T08:41:19;102363.22;;;1.31;100.00
18900;BME280;9582;52.018;6.306;2023-01-26T08:43:49;102365.03;;;1.37;100.00
18900;BME280;9582;52.018;6.306;2023-01-26T08:46:18;102368.53;;;1.40;100.00
18900;BME280;9582;52.018;6.306;2023-01-26T08:48:48;102359.94;;;1.41;100.00
18900;BME280;9582;52.018;6.306;2023-01-26T08:51:16;102360.97;;;1.51;100.00
18900;BME280;9582;52.018;6.306;2023-01-26T08:53:47;102364.44;;;1.51;100.00
18900;BME280;9582;52.018;6.306;2023-01-26T08:56:19;102371.22;;;1.48;100.00
18900;BME280;9582;52.018;6.306;2023-01-26T08:58:47;102361.03;;;1.54;100.00
18900;BME280;9582;52.018;6.306;2023-01-26T09:01:15;102357.56;;;1.52;100.00
18900;BME280;9582;52.018;6.306;2023-01-26T09:03:56;102364.38;;;1.48;100.00
18900;BME280;9582;52.018;6.306;2023-01-26T09:06:27;102370.41;;;1.50;100.00
18900;BME280;9582;52.018;6.306;2023-01-26T09:08:57;102371.22;;;1.48;100.00
18900;BME280;9582;52.018;6.306;2023-01-26T09:11:24;102376.44;;;1.51;100.00
18900;BME280;9582;52.018;6.306;2023-01-26T09:13:52;102368.72;;;1.51;100.00
18900;BME280;9582;52.018;6.306;2023-01-26T09:16:24;102374.81;;;1.56;100.00
18900;BME280;9582;52.018;6.306;2023-01-26T09:18:54;102375.56;;;1.49;100.00
18900;BME280;9582;52.018;6.306;2023-01-26T09:21:21;102367.94;;;1.56;100.00
18900;BME280;9582;52.018;6.306;2023-01-26T09:23:51;102367.06;;;1.56;100.00
18900;BME280;9582;52.018;6.306;2023-01-26T09:26:20;102365.44;;;1.61;100.00
18900;BME280;9582;52.018;6.306;2023-01-26T09:28:49;102366.41;;;1.66;100.00
18900;BME280;9582;52.018;6.306;2023-01-26T09:31:17;102376.66;;;1.64;100.00
18900;BME280;9582;52.018;6.306;2023-01-26T09:33:44;102379.28;;;1.67;100.00
18900;BME280;9582;52.018;6.306;2023-01-26T09:36:12;102370.69;;;1.67;100.00
18900;BME280;9582;52.018;6.306;2023-01-26T09:38:39;102378.47;;;1.70;100.00
18900;BME280;9582;52.018;6.306;2023-01-26T09:44:15;102373.47;;;1.79;100.00
18900;BME280;9582;52.018;6.306;2023-01-26T09:46:58;102377.81;;;1.80;100.00
18900;BME280;9582;52.018;6.306;2023-01-26T09:49:33;102373.50;;;1.81;100.00
18900;BME280;9582;52.018;6.306;2023-01-26T09:52:10;102382.97;;;1.80;100.00
18900;BME280;9582;52.018;6.306;2023-01-26T09:54:46;102382.16;;;1.84;100.00
18900;BME280;9582;52.018;6.306;2023-01-26T09:57:18;102376.22;;;1.90;100.00
18900;BME280;9582;52.018;6.306;2023-01-26T09:59:49;102374.59;;;1.96;100.00
18900;BME280;9582;52.018;6.306;2023-01-26T10:02:39;102372.03;;;1.98;100.00
18900;BME280;9582;52.018;6.306;2023-01-26T10:05:17;102370.38;;;2.00;100.00
18900;BME280;9582;52.018;6.306;2023-01-26T10:07:49;102374.69;;;2.02;100.00
18900;BME280;9582;52.018;6.306;2023-01-26T10:10:24;102378.22;;;2.07;100.00
18900;BME280;9582;52.018;6.306;2023-01-26T10:12:54;102369.56;;;2.04;100.00
18900;BME280;9582;52.018;6.306;2023-01-26T10:15:28;102373.03;;;2.06;100.00
18900;BME280;9582;52.018;6.306;2023-01-26T10:17:59;102373.03;;;2.06;100.00
18900;BME280;9582;52.018;6.306;2023-01-26T10:20:35;102374.75;;;2.05;100.00
18900;BME280;9582;52.018;6.306;2023-01-26T10:23:12;102369.72;;;2.16;100.00
18900;BME280;9582;52.018;6.306;2023-01-26T10:25:44;102369.00;;;2.24;100.00
18900;BME280;9582;52.018;6.306;2023-01-26T10:28:24;102369.13;;;2.33;100.00
18900;BME280;9582;52.018;6.306;2023-01-26T10:31:04;102370.94;;;2.39;100.00
18900;BME280;9582;52.018;6.306;2023-01-26T10:33:35;102373.47;;;2.38;100.00
18900;BME280;9582;52.018;6.306;2023-01-26T10:36:06;102371.03;;;2.45;100.00
18900;BME280;9582;52.018;6.306;2023-01-26T10:38:47;102371.06;;;2.50;100.00
18900;BME280;9582;52.018;6.306;2023-01-26T10:41:27;102372.06;;;2.61;100.00
18900;BME280;9582;52.018;6.306;2023-01-26T10:43:59;102367.78;;;2.63;100.00
18900;BME280;9582;52.018;6.306;2023-01-26T10:46:32;102376.34;;;2.59;100.00
18900;BME280;9582;52.018;6.306;2023-01-26T10:49:15;102375.56;;;2.66;100.00
18900;BME280;9582;52.018;6.306;2023-01-26T10:51:43;102371.31;;;2.68;100.00
18900;BME280;9582;52.018;6.306;2023-01-26T10:54:21;102373.09;;;2.75;100.00
18900;BME280;9582;52.018;6.306;2023-01-26T10:56:50;102379.25;;;2.86;100.00
18900;BME280;9582;52.018;6.306;2023-01-26T10:59:32;102385.41;;;2.97;100.00
18900;BME280;9582;52.018;6.306;2023-01-26T11:02:19;102376.94;;;3.07;100.00
18900;BME280;9582;52.018;6.306;2023-01-26T11:05:01;102377.03;;;3.18;100.00
18900;BME280;9582;52.018;6.306;2023-01-26T11:07:35;102371.09;;;3.28;100.00
18900;BME280;9582;52.018;6.306;2023-01-26T11:10:21;102373.66;;;3.23;100.00
18900;BME280;9582;52.018;6.306;2023-01-26T11:13:04;102378.88;;;3.29;100.00
18900;BME280;9582;52.018;6.306;2023-01-26T11:15:36;102378.00;;;3.30;100.00
18900;BME280;9582;52.018;6.306;2023-01-26T11:18:14;102375.50;;;3.39;100.00
18900;BME280;9582;52.018;6.306;2023-01-26T11:20:50;102372.13;;;3.43;100.00
18900;BME280;9582;52.018;6.306;2023-01-26T11:23:37;102372.19;;;3.49;100.00
18900;BME280;9582;52.018;6.306;2023-01-26T11:26:35;102368.81;;;3.60;100.00
18900;BME280;9582;52.018;6.306;2023-01-26T11:29:29;102375.00;;;3.75;100.00
18900;BME280;9582;52.018;6.306;2023-01-26T11:32:13;102367.31;;;3.86;100.00
18900;BME280;9582;52.018;6.306;2023-01-26T11:34:49;102367.34;;;3.92;100.00
18900;BME280;9582;52.018;6.306;2023-01-26T11:37:48;102372.56;;;4.01;100.00
18900;BME280;9582;52.018;6.306;2023-01-26T11:40:29;102364.03;;;4.11;100.00
18900;BME280;9582;52.018;6.306;2023-01-26T11:43:21;102371.03;;;4.29;100.00
18900;BME280;9582;52.018;6.306;2023-01-26T11:46:00;102370.19;;;4.28;100.00
18900;BME280;9582;52.018;6.306;2023-01-26T11:48:38;102358.16;;;4.44;100.00
18900;BME280;9582;52.018;6.306;2023-01-26T11:51:19;102371.16;;;4.51;100.00
18900;BME280;9582;52.018;6.306;2023-01-26T11:54:05;102357.38;;;4.63;100.00
18900;BME280;9582;52.018;6.306;2023-01-26T11:56:47;102372.13;;;4.73;100.00
18900;BME280;9582;52.018;6.306;2023-01-26T11:59:22;102362.66;;;4.86;100.00
18900;BME280;9582;52.018;6.306;2023-01-26T12:01:59;102354.06;;;4.96;100.00
18900;BME280;9582;52.018;6.306;2023-01-26T12:04:35;102356.69;;;5.08;100.00
18900;BME280;9582;52.018;6.306;2023-01-26T12:07:18;102352.41;;;5.22;100.00
18900;BME280;9582;52.018;6.306;2023-01-26T12:09:53;102360.16;;;5.16;100.00
18900;BME280;9582;52.018;6.306;2023-01-26T12:12:31;102351.53;;;5.32;100.00
18900;BME280;9582;52.018;6.306;2023-01-26T12:15:10;102352.41;;;5.36;100.00
18900;BME280;9582;52.018;6.306;2023-01-26T12:17:50;102341.16;;;5.41;100.00
18900;BME280;9582;52.018;6.306;2023-01-26T12:20:28;102343.78;;;5.50;100.00
18900;BME280;9582;52.018;6.306;2023-01-26T12:23:02;102335.97;;;5.58;100.00
18900;BME280;9582;52.018;6.306;2023-01-26T12:25:32;102334.22;;;5.67;100.00
18900;BME280;9582;52.018;6.306;2023-01-26T12:28:10;102328.19;;;5.74;100.00
18900;BME280;9582;52.018;6.306;2023-01-26T12:30:48;102328.22;;;5.87;100.00
18900;BME280;9582;52.018;6.306;2023-01-26T12:33:19;102331.66;;;5.95;100.00
18900;BME280;9582;52.018;6.306;2023-01-26T12:35:53;102319.53;;;6.00;100.00
18900;BME280;9582;52.018;6.306;2023-01-26T12:38:44;102312.56;;;6.11;100.00
18900;BME280;9582;52.018;6.306;2023-01-26T12:41:22;102311.72;;;6.15;100.00
18900;BME280;9582;52.018;6.306;2023-01-26T12:44:06;102295.25;;;6.23;100.00
18900;BME280;9582;52.018;6.306;2023-01-26T12:46:39;102298.63;;;6.36;100.00
18900;BME280;9582;52.018;6.306;2023-01-26T12:49:17;102284.75;;;6.46;100.00
18900;BME280;9582;52.018;6.306;2023-01-26T12:51:52;102289.94;;;6.48;100.00
18900;BME280;9582;52.018;6.306;2023-01-26T12:54:25;102288.16;;;6.60;100.00
18900;BME280;9582;52.018;6.306;2023-01-26T12:57:05;102279.44;;;6.64;100.00
18900;BME280;9582;52.018;6.306;2023-01-26T12:59:36;102282.03;;;6.70;100.00
18900;BME280;9582;52.018;6.306;2023-01-26T13:02:26;102272.44;;;6.75;100.00
18900;BME280;9582;52.018;6.306;2023-01-26T13:05:20;102285.44;;;6.83;100.00
18900;BME280;9582;52.018;6.306;2023-01-26T13:07:55;102273.25;;;6.91;100.00
18900;BME280;9582;52.018;6.306;2023-01-26T13:10:28;102272.28;;;7.01;100.00
18900;BME280;9582;52.018;6.306;2023-01-26T13:13:24;102270.50;;;7.11;100.00
18900;BME280;9582;52.018;6.306;2023-01-26T13:16:29;102272.13;;;7.24;100.00
18900;BME280;9582;52.018;6.306;2023-01-26T13:19:03;102266.88;;;7.30;100.00
18900;BME280;9582;52.018;6.306;2023-01-26T13:21:42;102263.28;;;7.43;100.00
18900;BME280;9582;52.018;6.306;2023-01-26T13:24:42;102262.31;;;7.54;100.00
18900;BME280;9582;52.018;6.306;2023-01-26T13:27:28;102256.16;;;7.63;100.00
18900;BME280;9582;52.018;6.306;2023-01-26T13:29:55;102264.00;;;7.60;100.00
18900;BME280;9582;52.018;6.306;2023-01-26T13:35:26;102254.41;;;7.64;100.00
18900;BME280;9582;52.018;6.306;2023-01-26T13:38:01;102257.81;;;7.69;100.00
18900;BME280;9582;52.018;6.306;2023-01-26T13:40:33;102250.84;;;7.75;100.00
18900;BME280;9582;52.018;6.306;2023-01-26T13:43:09;102247.34;;;7.75;100.00
18900;BME280;9582;52.018;6.306;2023-01-26T13:45:44;102248.22;;;7.74;100.00
18900;BME280;9582;52.018;6.306;2023-01-26T13:48:35;102243.88;;;7.74;100.00